Аэропорт: Байкал. Улан-Удэ

ICAO: UIUU

METAR:
2020-08-12 07:00:00
UIUU 120700Z 34002MPS 240V030 9999 FEW043CB 24/16 Q1006 R26/60D NOSIG RMK QFE711/0948
METAR:
2020-08-12 05:00:00
TAF UIUU 120500Z 1206/1306 12003G08MPS 9999 SCT040CB TEMPO 1206/1215 -TSRA BKN014CB TEMPO 1215/1306 -SHRA BKN014CB